Time;durP1;ratioP1;P1;durP2;ratioP2;P2;SDS_P1;SDS_P2;PMS_P1;PMS_P2;Temp;Humidity;BMP_temperature;BMP_pressure;BME280_temperature;BME280_humidity;BME280_pressure;Samples;Min_cycle;Max_cycle;Signal;HPM_P1;HPM_P2
2022/04/21 00:02:15;;;;;;;2.97;1.30;;;;;;;10.41;36.27;99725.44;5072708;28;20103;-52
2022/04/21 00:04:41;;;;;;;2.47;1.60;;;;;;;10.18;36.92;99723.63;5072967;28;20035;-50
2022/04/21 00:07:06;;;;;;;2.63;1.52;;;;;;;10.32;37.02;99732.34;5054798;28;20051;-51
2022/04/21 00:09:32;;;;;;;2.33;1.30;;;;;;;10.51;36.33;99738.94;5072528;28;20391;-53
2022/04/21 00:11:57;;;;;;;1.73;1.00;;;;;;;10.32;36.92;99705.59;5072782;28;20115;-51
2022/04/21 00:14:23;;;;;;;3.50;1.88;;;;;;;10.54;36.52;99738.66;5072194;28;20032;-52
2022/04/21 00:16:48;;;;;;;2.65;1.40;;;;;;;10.31;36.97;99736.00;5072531;28;20035;-51
2022/04/21 00:19:14;;;;;;;3.28;1.38;;;;;;;10.35;37.09;99737.44;5072583;28;20024;-48
2022/04/21 00:24:23;;;;;;;2.67;1.55;;;;;;;10.27;37.06;99723.84;5072211;28;20045;-52
2022/04/21 00:26:49;;;;;;;2.83;1.38;;;;;;;10.22;37.32;99740.28;5072318;28;20134;-51
2022/04/21 00:29:14;;;;;;;2.50;1.23;;;;;;;9.76;37.15;99662.75;5072636;28;20437;-51
2022/04/21 00:31:40;;;;;;;4.00;1.52;;;;;;;10.22;37.70;99736.75;5072468;28;20055;-54
2022/04/21 00:34:05;;;;;;;3.55;1.42;;;;;;;10.27;37.32;99735.44;5072335;28;20073;-51
2022/04/21 00:36:31;;;;;;;2.08;1.40;;;;;;;10.33;37.47;99755.47;5072077;28;20107;-53
2022/04/21 00:38:56;;;;;;;2.67;1.60;;;;;;;10.35;37.53;99726.75;5072067;28;20020;-52
2022/04/21 00:41:22;;;;;;;5.57;1.42;;;;;;;10.29;37.16;99759.38;5071616;28;20029;-50
2022/04/21 00:43:47;;;;;;;1.35;1.20;;;;;;;10.34;37.38;99741.09;5071586;28;20029;-55
2022/04/21 00:46:23;;;;;;;2.05;1.38;;;;;;;10.15;37.43;99742.63;5072391;28;20029;-54
2022/04/21 00:48:49;;;;;;;3.35;1.38;;;;;;;10.37;37.46;99748.91;5072155;28;20060;-52
2022/04/21 00:51:15;;;;;;;1.42;1.15;;;;;;;10.09;38.13;99743.09;5071708;28;20115;-54
2022/04/21 00:53:42;;;;;;;1.65;1.20;;;;;;;10.22;38.11;99759.00;5072528;28;20029;-51
2022/04/21 00:56:10;;;;;;;3.40;1.10;;;;;;;10.14;37.95;99738.25;5071879;28;20028;-48
2022/04/21 00:58:37;;;;;;;2.45;1.05;;;;;;;10.25;38.16;99755.25;5053771;28;20074;-57
2022/04/21 01:01:03;;;;;;;1.13;1.02;;;;;;;10.14;38.26;99743.59;5053783;28;20150;-50
2022/04/21 01:03:30;;;;;;;2.30;1.48;;;;;;;9.88;38.85;99740.31;5053829;28;20044;-48
2022/04/21 01:05:56;;;;;;;3.58;1.50;;;;;;;9.61;39.33;99706.75;5071537;28;20036;-49
2022/04/21 01:08:21;;;;;;;3.30;1.25;;;;;;;9.89;39.02;99748.22;5071745;28;20029;-52
2022/04/21 01:10:49;;;;;;;2.70;1.48;;;;;;;10.02;38.87;99745.44;5053609;28;20085;-53
2022/04/21 01:13:16;;;;;;;1.95;1.05;;;;;;;10.21;38.08;99738.56;5071489;28;20379;-50
2022/04/21 01:15:42;;;;;;;2.33;1.70;;;;;;;10.02;39.04;99736.53;5071834;28;20056;-53
2022/04/21 01:18:08;;;;;;;1.70;1.00;;;;;;;9.90;38.98;99749.94;5071750;28;20544;-54
2022/04/21 01:20:34;;;;;;;1.30;1.20;;;;;;;10.07;38.89;99728.16;5071263;28;20045;-53
2022/04/21 01:23:00;;;;;;;5.68;1.20;;;;;;;10.03;39.13;99743.59;5071265;28;20107;-54
2022/04/21 01:25:25;;;;;;;2.55;1.45;;;;;;;9.81;39.67;99737.25;5071175;28;20427;-49
2022/04/21 01:27:56;;;;;;;2.80;1.40;;;;;;;9.89;39.36;99732.19;5071017;28;20056;-49
2022/04/21 01:30:21;;;;;;;1.98;1.20;;;;;;;9.66;40.11;99738.50;5071261;28;20020;-50
2022/04/21 01:32:49;;;;;;;3.78;1.45;;;;;;;9.58;40.15;99712.34;5071215;28;20398;-53
2022/04/21 01:35:15;;;;;;;1.75;1.17;;;;;;;9.82;39.89;99738.97;5071438;28;20037;-49
2022/04/21 01:43:10;;;;;;;2.05;1.27;;;;;;;9.77;40.30;99733.13;5071277;28;20032;-52
2022/04/21 01:45:37;;;;;;;5.15;1.30;;;;;;;9.62;40.41;99752.06;5071079;28;20077;-53
2022/04/21 01:48:03;;;;;;;1.85;1.25;;;;;;;9.78;39.91;99742.84;5070908;28;20388;-53
2022/04/21 01:50:29;;;;;;;7.97;1.40;;;;;;;9.58;40.33;99723.03;5053053;28;20088;-50
2022/04/21 01:52:56;;;;;;;1.70;1.30;;;;;;;9.65;40.53;99734.94;5071106;28;20039;-49
2022/04/21 01:55:22;;;;;;;1.63;1.10;;;;;;;9.68;40.39;99736.53;5071115;28;20039;-50
2022/04/21 01:57:47;;;;;;;2.20;1.25;;;;;;;9.44;40.56;99710.75;5071218;28;20029;-58
2022/04/21 02:00:13;;;;;;;2.88;1.48;;;;;;;9.32;40.40;99680.50;5070924;28;20029;-54
2022/04/21 02:02:39;;;;;;;1.95;1.08;;;;;;;9.53;40.85;99730.56;5071003;28;20040;-51
2022/04/21 02:05:04;;;;;;;2.45;1.30;;;;;;;9.60;40.75;99740.66;5071008;28;20131;-52
2022/04/21 02:07:30;;;;;;;1.42;1.08;;;;;;;9.54;40.64;99735.78;5070763;28;20036;-52
2022/04/21 02:09:56;;;;;;;4.25;1.35;;;;;;;9.69;40.29;99743.59;5070354;28;20108;-52
2022/04/21 02:12:23;;;;;;;2.85;1.30;;;;;;;9.72;40.59;99744.19;5070807;28;20422;-49
2022/04/21 02:14:49;;;;;;;1.52;1.30;;;;;;;9.52;40.49;99732.38;5070806;28;20028;-57
2022/04/21 02:17:15;;;;;;;1.30;1.10;;;;;;;9.57;40.71;99735.53;5070813;28;20032;-47
2022/04/21 02:19:41;;;;;;;2.05;1.10;;;;;;;9.68;40.29;99725.84;5070414;28;20025;-50
2022/04/21 02:22:06;;;;;;;2.95;1.10;;;;;;;9.61;40.62;99715.63;5070219;28;20470;-50
2022/04/21 02:24:31;;;;;;;2.20;1.45;;;;;;;9.51;40.81;99733.34;5070651;28;20041;-51
2022/04/21 02:26:57;;;;;;;3.85;1.48;;;;;;;9.42;41.23;99728.75;5070583;28;20024;-49
2022/04/21 02:29:22;;;;;;;3.28;1.27;;;;;;;9.48;41.01;99721.06;5070630;28;20064;-49
2022/04/21 02:31:48;;;;;;;2.35;1.05;;;;;;;9.46;40.83;99720.34;5070516;28;20037;-57
2022/04/21 02:34:13;;;;;;;3.22;1.15;;;;;;;9.84;40.23;99730.84;5070391;28;20060;-51
2022/04/21 02:36:39;;;;;;;1.65;1.02;;;;;;;9.97;39.87;99728.03;5070441;28;20789;-54
2022/04/21 02:39:05;;;;;;;2.03;1.00;;;;;;;9.88;40.14;99737.63;5074357;28;20383;-50
2022/04/21 02:41:30;;;;;;;7.00;1.58;;;;;;;9.56;40.96;99720.47;5074669;28;20400;-48
2022/04/21 02:43:56;;;;;;;1.25;1.00;;;;;;;9.61;41.06;99723.63;5056409;28;20032;-53
2022/04/21 02:46:27;;;;;;;4.82;1.10;;;;;;;9.38;41.82;99711.22;5056194;28;20025;-51
2022/04/21 02:48:55;;;;;;;1.38;1.02;;;;;;;9.35;41.65;99715.00;5074650;28;20086;-48
2022/04/21 02:51:20;;;;;;;1.92;1.10;;;;;;;9.32;41.80;99732.09;5074361;28;20428;-50
2022/04/21 02:59:15;;;;;;;1.92;1.20;;;;;;;9.59;40.98;99714.88;5074044;28;20472;-48
2022/04/21 03:01:40;;;;;;;6.72;1.48;;;;;;;9.60;40.90;99710.41;5056090;28;20110;-49
2022/04/21 03:04:06;;;;;;;3.03;1.23;;;;;;;9.44;41.50;99716.94;5073996;28;20036;-49
2022/04/21 03:06:31;;;;;;;5.50;1.40;;;;;;;9.48;41.35;99728.25;5074192;28;20035;-50
2022/04/21 03:08:57;;;;;;;5.22;1.40;;;;;;;9.47;41.52;99713.19;5073871;28;20035;-50
2022/04/21 03:11:22;;;;;;;3.30;1.20;;;;;;;9.46;41.43;99708.81;5073922;28;20039;-55
2022/04/21 03:13:48;;;;;;;4.00;1.13;;;;;;;9.63;40.83;99708.31;5074310;28;20031;-55
2022/04/21 03:16:13;;;;;;;2.42;1.10;;;;;;;9.50;41.24;99712.94;5073515;28;20359;-49
2022/04/21 03:18:38;;;;;;;2.78;1.00;;;;;;;9.47;41.37;99711.34;5055777;28;20032;-48
2022/04/21 03:26:32;;;;;;;1.95;1.15;;;;;;;9.59;41.16;99725.56;5073728;28;20032;-50
2022/04/21 03:28:57;;;;;;;2.97;1.17;;;;;;;9.56;41.25;99723.16;5073697;28;20028;-49
2022/04/21 03:31:23;;;;;;;1.52;1.00;;;;;;;9.82;40.65;99730.09;5073789;28;20175;-56
2022/04/21 03:33:50;;;;;;;1.73;1.25;;;;;;;9.54;41.36;99741.13;5073796;28;20036;-56
2022/04/21 03:36:16;;;;;;;2.92;1.40;;;;;;;9.44;41.75;99762.38;5055365;28;20075;-50
2022/04/21 03:38:42;;;;;;;6.22;1.52;;;;;;;9.55;41.59;99742.00;5073544;28;20028;-53
2022/04/21 03:41:07;;;;;;;2.95;1.30;;;;;;;9.48;41.27;99752.31;5073461;28;20388;-56
2022/04/21 03:43:33;;;;;;;3.10;1.10;;;;;;;9.51;41.62;99743.19;5064895;28;20151;-57
2022/04/21 03:45:59;;;;;;;2.33;1.50;;;;;;;9.43;41.94;99741.13;5073223;28;20040;-55
2022/04/21 03:48:24;;;;;;;1.77;1.27;;;;;;;9.44;42.20;99756.19;5072993;28;20032;-54
2022/04/21 03:50:50;;;;;;;1.17;1.00;;;;;;;9.58;41.92;99742.59;5073094;28;20495;-53
2022/04/21 03:53:16;;;;;;;2.30;1.17;;;;;;;9.47;41.88;99755.94;5073430;28;20372;-51
2022/04/21 03:55:42;;;;;;;2.42;1.20;;;;;;;9.39;42.15;99753.88;5038586;28;20028;-51
2022/04/21 03:58:08;;;;;;;3.58;1.20;;;;;;;9.43;41.97;99749.16;5073248;28;20375;-51
2022/04/21 04:00:33;;;;;;;7.43;1.20;;;;;;;9.23;42.13;99727.47;5073078;28;20036;-51
2022/04/21 04:02:59;;;;;;;4.80;1.13;;;;;;;9.39;42.03;99750.31;5072918;28;20032;-51
2022/04/21 04:05:24;;;;;;;2.63;1.15;;;;;;;9.47;42.00;99754.13;5055308;28;20113;-53
2022/04/21 04:10:52;;;;;;;2.22;1.40;;;;;;;9.33;42.48;99767.69;5054972;28;20032;-54
2022/04/21 04:13:22;;;;;;;5.28;1.08;;;;;;;9.48;42.50;99754.97;5072770;28;20032;-52
2022/04/21 04:15:49;;;;;;;6.90;1.35;;;;;;;9.37;42.47;99762.97;5072629;28;20024;-55
2022/04/21 04:18:21;;;;;;;2.55;1.13;;;;;;;9.54;41.76;99765.19;5072450;28;20028;-56
2022/04/21 04:20:47;;;;;;;4.75;1.20;;;;;;;9.32;42.25;99761.50;5072674;28;20040;-55
2022/04/21 04:23:16;;;;;;;2.58;1.40;;;;;;;9.41;42.42;99753.75;5072608;28;20055;-58
2022/04/21 04:25:42;;;;;;;2.45;1.40;;;;;;;9.61;42.08;99750.38;5072705;28;20029;-59
2022/04/21 04:28:08;;;;;;;1.90;1.42;;;;;;;9.45;42.19;99755.22;5072508;28;20028;-55
2022/04/21 04:30:33;;;;;;;5.75;1.50;;;;;;;9.46;42.24;99754.25;5072228;28;20060;-60
2022/04/21 04:32:59;;;;;;;6.72;1.90;;;;;;;9.45;42.52;99732.00;5072808;28;20037;-58
2022/04/21 04:35:26;;;;;;;3.92;1.40;;;;;;;9.51;42.36;99752.06;5055082;28;20059;-57
2022/04/21 04:37:52;;;;;;;5.93;1.50;;;;;;;9.45;42.55;99747.19;5072726;28;20535;-56
2022/04/21 04:40:18;;;;;;;3.47;1.70;;;;;;;9.47;42.58;99750.59;5054160;28;20036;-59
2022/04/21 04:42:43;;;;;;;2.15;1.33;;;;;;;9.36;42.44;99718.50;5053586;28;20063;-60
2022/04/21 04:47:53;;;;;;;4.50;1.52;;;;;;;9.58;43.04;99726.56;5052357;28;20021;-57
2022/04/21 04:50:19;;;;;;;2.63;0.98;;;;;;;9.67;42.42;99722.31;5052039;28;20111;-57
2022/04/21 04:52:44;;;;;;;5.25;1.85;;;;;;;9.69;43.19;99727.56;5052275;28;20029;-58
2022/04/21 04:55:11;;;;;;;3.25;1.98;;;;;;;9.67;43.06;99722.31;5052085;28;20049;-57
2022/04/21 04:57:38;;;;;;;4.78;1.80;;;;;;;9.65;42.28;99696.69;5051950;28;20043;-58
2022/04/21 05:00:05;;;;;;;3.55;1.52;;;;;;;9.61;43.08;99720.97;5051365;28;20124;-57
2022/04/21 05:02:31;;;;;;;4.10;1.70;;;;;;;9.54;43.13;99730.44;5051156;28;20033;-55
2022/04/21 05:04:56;;;;;;;3.15;1.63;;;;;;;9.53;42.89;99727.91;5034079;28;20021;-53
2022/04/21 05:07:22;;;;;;;2.50;1.60;;;;;;;9.67;42.97;99745.53;5052053;28;20036;-56
2022/04/21 05:09:47;;;;;;;2.38;1.45;;;;;;;9.98;41.80;99735.91;5033885;28;20116;-57
2022/04/21 05:12:13;;;;;;;5.78;1.70;;;;;;;9.89;41.71;99748.22;5033708;28;20033;-57
2022/04/21 05:14:38;;;;;;;3.80;1.55;;;;;;;9.79;42.64;99749.91;5051856;28;20033;-57
2022/04/21 05:17:04;;;;;;;1.80;1.50;;;;;;;9.67;42.37;99737.50;5051658;28;20495;-59
2022/04/21 05:19:29;;;;;;;7.03;1.75;;;;;;;9.63;42.72;99752.94;5051519;28;20036;-66
2022/04/21 05:22:01;;;;;;;6.00;1.90;;;;;;;9.45;43.20;99747.19;5051480;28;20094;-54
2022/04/21 05:24:32;;;;;;;2.47;1.48;;;;;;;9.68;44.08;99745.41;5052095;28;20040;-59
2022/04/21 05:26:58;;;;;;;2.97;1.52;;;;;;;9.64;44.40;99749.28;5051746;28;20086;-59
2022/04/21 05:32:09;;;;;;;6.68;1.83;;;;;;;9.65;45.07;99748.31;5033214;28;20489;-57
2022/04/21 05:34:35;;;;;;;6.00;1.70;;;;;;;9.52;46.00;99745.75;5033412;28;20110;-59
2022/04/21 05:37:03;;;;;;;3.25;1.88;;;;;;;9.58;45.11;99761.31;5051461;28;20461;-63
2022/04/21 05:39:30;;;;;;;2.55;1.38;;;;;;;9.68;44.79;99756.09;5051389;28;20476;-61
2022/04/21 05:42:00;;;;;;;1.63;0.98;;;;;;;9.96;43.42;99759.25;5051172;28;20515;-57
2022/04/21 05:44:27;;;;;;;2.40;1.63;;;;;;;9.72;44.71;99780.78;5051326;28;20025;-53
2022/04/21 05:46:53;;;;;;;2.53;1.40;;;;;;;9.66;43.96;99784.78;5051307;28;20495;-54
2022/04/21 05:49:19;;;;;;;3.60;1.50;;;;;;;9.66;44.27;99794.63;5050926;28;20461;-61
2022/04/21 05:51:46;;;;;;;5.70;1.20;;;;;;;9.72;44.67;99786.13;5051066;28;20116;-55
2022/04/21 05:54:12;;;;;;;6.15;1.90;;;;;;;9.59;45.80;99788.91;5051197;28;20028;-57
2022/04/21 05:56:38;;;;;;;3.65;1.30;;;;;;;9.71;45.25;99827.19;5051149;28;20033;-59
2022/04/21 05:59:03;;;;;;;2.85;1.80;;;;;;;9.42;47.86;99820.44;5050895;28;20029;-58
2022/04/21 06:01:30;;;;;;;3.00;0.98;;;;;;;9.51;47.10;99828.72;5051358;28;20061;-55
2022/04/21 06:03:56;;;;;;;3.67;1.90;;;;;;;9.15;49.99;99826.03;5051070;28;20059;-58
2022/04/21 06:06:21;;;;;;;2.28;1.50;;;;;;;9.07;50.39;99853.34;5050798;28;20088;-57
2022/04/21 06:08:47;;;;;;;2.92;1.60;;;;;;;9.15;50.04;99839.38;5050816;28;20025;-56
2022/04/21 06:11:13;;;;;;;6.30;1.90;;;;;;;8.82;51.50;99820.44;5051034;28;20116;-54
2022/04/21 06:13:42;;;;;;;3.17;2.05;;;;;;;8.75;51.64;99824.50;5050513;28;20128;-60
2022/04/21 06:16:09;;;;;;;3.95;1.67;;;;;;;8.87;51.34;99876.13;5050574;28;20032;-59
2022/04/21 06:18:38;;;;;;;2.63;1.60;;;;;;;8.93;51.57;99830.31;5050070;28;20033;-55
2022/04/21 06:21:06;;;;;;;3.10;2.10;;;;;;;8.85;51.94;99846.03;5049401;28;20052;-62
2022/04/21 06:23:32;;;;;;;5.80;1.52;;;;;;;8.97;51.17;99838.94;5033222;28;20055;-56
2022/04/21 06:26:01;;;;;;;2.25;1.65;;;;;;;8.82;51.82;99862.28;5032780;28;20037;-59
2022/04/21 06:28:28;;;;;;;3.75;1.80;;;;;;;8.97;51.80;99868.31;5050499;28;20124;-56
2022/04/21 06:30:54;;;;;;;5.53;1.90;;;;;;;8.94;52.09;99864.06;5050338;28;20802;-56
2022/04/21 06:33:19;;;;;;;2.58;2.08;;;;;;;8.85;52.21;99822.88;5032564;28;20044;-57
2022/04/21 06:35:45;;;;;;;5.70;2.10;;;;;;;9.03;52.56;99858.03;5050059;28;20040;-56
2022/04/21 06:38:11;;;;;;;4.25;2.13;;;;;;;9.00;52.10;99868.94;5034075;28;20438;-61
2022/04/21 06:40:55;;;;;;;3.47;1.92;;;;;;;9.18;52.12;99864.06;5054008;28;20123;-52
2022/04/21 06:48:57;;;;;;;2.45;2.00;;;;;;;9.00;54.20;99868.94;5070141;28;20464;-56
2022/04/21 06:51:25;;;;;;;2.65;1.70;;;;;;;9.09;53.30;99909.28;5069767;28;20051;-58
2022/04/21 06:53:51;;;;;;;2.85;1.98;;;;;;;8.90;53.59;99875.91;5070033;28;20116;-57
2022/04/21 06:56:16;;;;;;;2.72;1.50;;;;;;;8.86;54.60;99898.47;5056143;28;20116;-59
2022/04/21 06:58:42;;;;;;;3.30;1.65;;;;;;;8.93;53.62;99913.09;5050140;28;20029;-56
2022/04/21 07:01:07;;;;;;;4.50;2.05;;;;;;;8.81;54.93;99897.94;5056804;28;20468;-57
2022/04/21 07:03:34;;;;;;;3.03;2.35;;;;;;;8.82;55.76;99892.50;5070794;28;20094;-60
2022/04/21 07:06:00;;;;;;;2.60;1.98;;;;;;;8.63;55.59;99847.59;5057287;28;20099;-56
2022/04/21 07:08:26;;;;;;;3.40;2.05;;;;;;;8.98;55.16;99889.56;5070244;28;20441;-58
2022/04/21 07:10:51;;;;;;;3.65;2.28;;;;;;;8.96;55.40;99909.31;5060415;28;20060;-57
2022/04/21 07:13:17;;;;;;;4.38;2.13;;;;;;;8.82;55.46;99894.31;5050197;28;20087;-55
2022/04/21 07:15:42;;;;;;;3.35;2.15;;;;;;;8.88;55.57;99912.56;5051072;28;20025;-58
2022/04/21 07:18:09;;;;;;;3.75;1.60;;;;;;;9.02;55.45;99917.75;5051693;28;20037;-61
2022/04/21 07:20:34;;;;;;;4.18;2.55;;;;;;;8.71;57.40;99911.97;5070332;28;20491;-62
2022/04/21 07:23:01;;;;;;;7.18;2.90;;;;;;;8.63;57.15;99927.66;5056444;28;20112;-57
2022/04/21 07:25:27;;;;;;;6.97;2.53;;;;;;;8.60;56.78;99883.38;5060272;28;20028;-57
2022/04/21 07:27:54;;;;;;;5.93;2.53;;;;;;;8.88;57.37;99923.22;5062664;28;20028;-53
2022/04/21 07:30:20;;;;;;;3.00;2.25;;;;;;;8.98;56.24;99916.28;5060578;28;20025;-60
2022/04/21 07:32:46;;;;;;;4.30;2.70;;;;;;;8.91;57.03;99923.00;5063148;28;20032;-62
2022/04/21 07:35:11;;;;;;;7.40;2.85;;;;;;;8.92;57.13;99926.53;5061725;28;20029;-59
2022/04/21 07:37:37;;;;;;;3.75;2.85;;;;;;;8.97;57.32;99937.75;5061805;28;20514;-60
2022/04/21 07:40:06;;;;;;;4.53;2.70;;;;;;;9.24;55.85;99934.03;5042827;28;20126;-60
2022/04/21 07:42:32;;;;;;;4.20;2.50;;;;;;;9.11;56.49;99934.94;5062360;28;20040;-58
2022/04/21 07:44:59;;;;;;;3.33;2.50;;;;;;;9.13;56.41;99945.50;5063854;28;20453;-57
2022/04/21 07:47:24;;;;;;;3.58;2.70;;;;;;;9.15;57.32;99933.75;5072209;28;20039;-53
2022/04/21 07:49:50;;;;;;;5.38;2.40;;;;;;;9.11;57.05;99932.25;5071390;28;20028;-62
2022/04/21 07:55:16;;;;;;;5.68;2.88;;;;;;;9.16;56.94;99945.25;5064983;28;20552;-63
2022/04/21 07:57:43;;;;;;;4.00;2.72;;;;;;;9.07;57.24;99927.25;5069944;28;20134;-55
2022/04/21 08:00:10;;;;;;;4.30;2.20;;;;;;;9.18;56.63;99954.03;5052231;28;20447;-56
2022/04/21 08:02:37;;;;;;;4.85;2.60;;;;;;;8.97;57.32;99922.59;5062802;28;20058;-63
2022/04/21 08:05:03;;;;;;;3.72;2.70;;;;;;;9.01;57.96;99950.78;5067528;28;20029;-53
2022/04/21 08:07:30;;;;;;;4.72;3.10;;;;;;;9.02;57.88;99955.16;5055865;28;20036;-56
2022/04/21 08:09:56;;;;;;;4.85;2.90;;;;;;;9.09;58.46;99968.91;5056631;28;20358;-58
2022/04/21 08:12:21;;;;;;;3.53;2.47;;;;;;;9.04;58.57;99955.88;5072059;28;20044;-54
2022/04/21 08:14:47;;;;;;;3.90;2.80;;;;;;;8.96;58.37;99939.56;5072442;28;20032;-52
2022/04/21 08:17:12;;;;;;;5.47;2.55;;;;;;;9.05;59.15;99972.78;5055092;28;20021;-56
2022/04/21 08:19:38;;;;;;;4.20;2.65;;;;;;;9.13;58.81;99956.16;5053105;28;20036;-59
2022/04/21 08:22:03;;;;;;;3.10;2.47;;;;;;;9.14;58.80;99976.56;5067264;28;20166;-59
2022/04/21 08:32:45;;;;;;;5.72;2.55;;;;;;;9.09;58.26;99984.94;5052101;28;20033;-56
2022/04/21 08:35:13;;;;;;;4.03;2.40;;;;;;;9.12;57.95;99989.19;5051807;28;20025;-59
2022/04/21 08:37:45;;;;;;;3.20;2.15;;;;;;;9.11;57.72;99990.16;5051561;28;20095;-55
2022/04/21 08:40:11;;;;;;;3.25;2.40;;;;;;;8.81;60.04;99988.72;5051738;28;20375;-52
2022/04/21 08:42:39;;;;;;;3.95;2.80;;;;;;;8.75;61.53;100004.22;5051725;28;20029;-58
2022/04/21 08:45:06;;;;;;;4.10;2.40;;;;;;;8.91;59.55;99992.44;5052424;28;20028;-60
2022/04/21 08:47:32;;;;;;;3.08;1.98;;;;;;;8.95;58.76;100001.09;5052178;28;20051;-57
2022/04/21 08:50:09;;;;;;;3.85;2.58;;;;;;;8.89;59.72;99978.34;5051509;28;20112;-53
2022/04/21 08:52:35;;;;;;;5.55;2.60;;;;;;;9.03;59.17;100001.38;5052027;28;20036;-57
2022/04/21 08:55:04;;;;;;;3.83;2.33;;;;;;;9.05;58.97;99997.66;5051468;28;20024;-60
2022/04/21 08:57:35;;;;;;;3.33;2.38;;;;;;;8.91;59.19;100003.09;5064252;28;20041;-64
2022/04/21 09:00:04;;;;;;;5.25;3.00;;;;;;;8.78;60.30;100000.44;5071791;28;20033;-56
2022/04/21 09:02:40;;;;;;;2.50;1.83;;;;;;;8.67;60.46;100021.72;5071138;28;20074;-58
2022/04/21 09:05:07;;;;;;;7.30;2.40;;;;;;;8.75;60.32;100041.59;5071961;28;20036;-61
2022/04/21 09:07:43;;;;;;;5.47;2.90;;;;;;;8.58;61.24;100018.75;5071667;28;20107;-59
2022/04/21 09:10:12;;;;;;;5.85;2.53;;;;;;;8.46;62.01;100052.44;5071293;28;20107;-60
2022/04/21 09:12:46;;;;;;;4.15;2.78;;;;;;;8.64;60.77;100060.16;5057393;28;20143;-59
2022/04/21 09:15:19;;;;;;;5.00;2.70;;;;;;;8.48;61.98;100049.63;5051349;28;20028;-56
2022/04/21 09:17:46;;;;;;;5.88;2.50;;;;;;;8.43;62.10;100019.75;5048369;28;20043;-56
2022/04/21 09:20:13;;;;;;;4.32;2.75;;;;;;;8.45;61.80;100042.72;5033488;28;20130;-57
2022/04/21 09:22:41;;;;;;;4.43;2.30;;;;;;;8.52;61.64;100040.50;5033666;28;20043;-63
2022/04/21 09:25:07;;;;;;;4.28;2.83;;;;;;;8.38;62.58;100014.72;5067418;28;20068;-57
2022/04/21 09:27:43;;;;;;;5.32;2.10;;;;;;;8.59;61.33;100043.59;5070886;28;20043;-59
2022/04/21 09:30:12;;;;;;;6.88;2.92;;;;;;;8.52;62.76;100067.19;5070809;28;20373;-61
2022/04/21 09:32:39;;;;;;;7.63;3.00;;;;;;;8.48;62.99;100045.16;5071208;28;20044;-60
2022/04/21 09:35:06;;;;;;;3.80;2.30;;;;;;;8.65;61.36;100083.22;5053052;28;20407;-60
2022/04/21 09:37:31;;;;;;;4.78;2.67;;;;;;;8.58;61.33;100060.56;5070757;28;20112;-57
2022/04/21 09:39:57;;;;;;;5.50;2.72;;;;;;;8.54;62.04;100064.41;5071119;28;20111;-58
2022/04/21 09:42:27;;;;;;;5.75;2.30;;;;;;;8.40;61.80;100042.16;5061981;28;20313;-60
2022/04/21 09:47:49;;;;;;;6.57;2.88;;;;;;;8.56;62.25;100068.72;5050865;28;20094;-60
2022/04/21 09:50:14;;;;;;;5.63;2.40;;;;;;;8.61;61.51;100073.69;5051028;28;20095;-59
2022/04/21 09:52:47;;;;;;;3.25;2.15;;;;;;;8.74;59.72;100071.91;5050582;28;20040;-70
2022/04/21 09:55:32;;;;;;;4.68;2.30;;;;;;;8.55;60.32;100079.47;5050887;28;20063;-57
2022/04/21 09:58:05;;;;;;;3.38;2.22;;;;;;;8.38;61.20;100092.09;5053451;28;20025;-58
2022/04/21 10:00:31;;;;;;;6.68;2.50;;;;;;;8.31;62.05;100080.13;5032922;28;20200;-53
2022/04/21 10:02:59;;;;;;;2.75;1.85;;;;;;;8.40;61.60;100090.19;5050822;28;20025;-56
2022/04/21 10:05:25;;;;;;;4.57;3.00;;;;;;;8.13;63.33;100077.72;5050776;28;20094;-59
2022/04/21 10:07:53;;;;;;;2.92;1.85;;;;;;;8.36;61.95;100118.03;5032548;28;20473;-58
2022/04/21 10:10:18;;;;;;;5.13;2.88;;;;;;;8.07;64.35;100082.63;5050134;28;20056;-55
2022/04/21 10:12:44;;;;;;;4.22;2.58;;;;;;;8.05;64.13;100086.25;5058376;28;20555;-58
2022/04/21 10:15:10;;;;;;;4.55;3.00;;;;;;;8.10;65.20;100109.09;5070303;28;20025;-58
2022/04/21 10:17:37;;;;;;;3.45;2.22;;;;;;;8.23;64.11;100107.31;5070317;28;20032;-58
2022/04/21 10:20:04;;;;;;;4.20;2.92;;;;;;;8.17;63.22;100095.25;5051969;28;20446;-59
2022/04/21 10:22:33;;;;;;;7.90;2.65;;;;;;;8.31;63.12;100109.47;5070576;28;20059;-56
2022/04/21 10:24:59;;;;;;;4.25;2.45;;;;;;;8.37;62.34;100111.72;5070367;28;20047;-56
2022/04/21 10:27:38;;;;;;;5.38;2.70;;;;;;;8.42;62.20;100117.59;5065246;28;20052;-60
2022/04/21 10:30:12;;;;;;;5.35;2.47;;;;;;;8.59;61.56;100110.31;5032546;28;20133;-56
2022/04/21 10:32:52;;;;;;;7.18;2.28;;;;;;;8.94;60.52;100135.56;5050528;28;20037;-57
2022/04/21 10:35:24;;;;;;;6.70;2.97;;;;;;;9.01;59.72;100124.38;5049679;28;20562;-56
2022/04/21 10:38:25;;;;;;;4.82;2.90;;;;;;;9.07;59.30;100119.53;5049060;28;20111;-53
2022/04/21 10:41:07;;;;;;;2.85;2.38;;;;;;;8.90;60.90;100129.56;4969375;28;20120;-54
2022/04/21 10:43:48;;;;;;;3.35;2.67;;;;;;;9.19;59.59;100137.41;5054835;28;20926;-54
2022/04/21 10:46:18;;;;;;;4.68;3.08;;;;;;;9.01;60.78;100136.84;5067297;28;20541;-63
2022/04/21 10:48:44;;;;;;;4.45;2.55;;;;;;;8.97;59.80;100125.53;5040694;28;20059;-62
2022/04/21 10:51:11;;;;;;;6.78;2.35;;;;;;;8.86;59.96;100114.72;5050143;28;20466;-62
2022/04/21 10:59:31;;;;;;;3.28;2.70;;;;;;;8.68;59.60;100141.75;5064626;28;20033;-59
2022/04/21 11:02:12;;;;;;;3.58;2.42;;;;;;;8.67;60.04;100145.34;5054287;28;20460;-55
2022/04/21 11:04:38;;;;;;;3.97;2.60;;;;;;;8.55;60.25;100115.00;5054562;28;20492;-57
2022/04/21 11:07:11;;;;;;;3.88;2.10;;;;;;;9.05;59.09;100176.59;5053898;28;20037;-56
2022/04/21 11:09:42;;;;;;;6.00;2.83;;;;;;;9.10;58.35;100162.06;5046523;28;20032;-54
2022/04/21 11:12:11;;;;;;;2.95;2.47;;;;;;;8.90;58.98;100156.28;5074296;28;20041;-58
2022/04/21 11:14:37;;;;;;;5.60;2.60;;;;;;;8.82;59.85;100155.97;5054332;28;20041;-57
2022/04/21 11:17:07;;;;;;;5.25;2.80;;;;;;;9.03;59.17;100158.97;5053300;28;20025;-58
2022/04/21 11:19:36;;;;;;;3.97;2.65;;;;;;;8.93;58.99;100163.22;5053962;28;20094;-54
2022/04/21 11:22:07;;;;;;;5.13;2.95;;;;;;;8.90;59.80;100167.81;5053156;28;20041;-56
2022/04/21 11:25:03;;;;;;;3.70;2.35;;;;;;;9.19;58.20;100205.03;5053930;28;20098;-56
2022/04/21 11:27:30;;;;;;;;;;;;;;;9.28;57.29;100170.63;5054286;28;20064;-56
2022/04/21 11:30:00;;;;;;;3.28;2.20;;;;;;;8.81;59.08;100162.25;5053089;28;19913;-55
2022/04/21 11:32:26;;;;;;;4.25;2.50;;;;;;;8.73;59.68;100176.13;5053608;28;20037;-56
2022/04/21 11:35:25;;;;;;;2.88;1.80;;;;;;;8.95;58.62;100180.00;5055247;28;20025;-58
2022/04/21 11:37:54;;;;;;;4.72;2.58;;;;;;;8.81;58.93;100202.31;5037575;28;20041;-56
2022/04/21 11:40:33;;;;;;;2.20;1.75;;;;;;;8.86;58.38;100194.84;5069292;28;20496;-58
2022/04/21 11:43:05;;;;;;;2.75;2.30;;;;;;;8.70;59.00;100195.00;5052666;28;20434;-59
2022/04/21 11:45:37;;;;;;;4.22;2.28;;;;;;;8.61;59.17;100188.47;5053143;28;20029;-58
2022/04/21 11:48:13;;;;;;;3.78;2.70;;;;;;;8.67;59.59;100201.41;5035853;28;20470;-54
2022/04/21 11:50:46;;;;;;;3.83;2.50;;;;;;;8.65;59.48;100189.97;5053531;28;20076;-55
2022/04/21 11:53:15;;;;;;;4.63;2.60;;;;;;;8.66;59.37;100185.50;5070365;28;20029;-55
2022/04/21 11:55:41;;;;;;;4.47;2.53;;;;;;;8.68;59.51;100179.13;5071168;28;20039;-59
2022/04/21 11:58:07;;;;;;;4.47;2.53;;;;;;;8.66;59.59;100215.72;5070123;28;20028;-59
2022/04/21 12:08:46;;;;;;;4.90;2.60;;;;;;;8.85;59.92;100196.66;5053177;28;20098;-60
2022/04/21 12:11:15;;;;;;;5.18;3.10;;;;;;;9.00;59.23;100188.56;5052142;28;20121;-56
2022/04/21 12:13:42;;;;;;;3.10;2.33;;;;;;;9.10;58.79;100199.47;5052594;28;20104;-55
2022/04/21 12:16:39;;;;;;;4.90;2.72;;;;;;;9.00;59.01;100185.88;5052390;28;20153;-58
2022/04/21 12:19:18;;;;;;;2.67;2.35;;;;;;;8.99;59.41;100182.38;5053038;28;20032;-56
2022/04/21 12:21:56;;;;;;;3.75;2.70;;;;;;;8.96;59.46;100189.72;5034817;28;20076;-56
2022/04/21 12:24:28;;;;;;;5.78;3.00;;;;;;;9.02;59.56;100187.50;5052775;28;20037;-55
2022/04/21 12:26:53;;;;;;;3.90;3.17;;;;;;;8.88;59.78;100196.44;5034589;28;20029;-57
2022/04/21 12:29:21;;;;;;;6.35;3.20;;;;;;;8.86;60.39;100201.03;5051541;28;20044;-59
2022/04/21 12:31:52;;;;;;;6.80;3.35;;;;;;;8.89;60.61;100194.63;5051026;28;20132;-57
2022/04/21 12:34:26;;;;;;;4.15;2.78;;;;;;;8.93;59.79;100189.94;5050527;28;20029;-61
2022/04/21 12:36:59;;;;;;;5.57;2.97;;;;;;;9.01;59.51;100220.50;5069904;28;20021;-59
2022/04/21 12:39:25;;;;;;;3.55;2.80;;;;;;;8.90;60.10;100215.03;5070347;28;20431;-62
2022/04/21 12:41:52;;;;;;;6.15;3.40;;;;;;;8.80;60.66;100208.59;5070763;28;20486;-61
2022/04/21 12:44:19;;;;;;;3.58;2.88;;;;;;;8.80;60.79;100208.59;5063472;28;20094;-58